createdAt,value
2022-08-23T07:17:20.674Z,3.30
2022-08-23T07:19:49.156Z,3.50
2022-08-23T07:22:28.081Z,3.50
2022-08-23T07:25:14.993Z,3.00
2022-08-23T07:28:11.741Z,3.60
2022-08-23T07:30:51.890Z,2.70
2022-08-23T07:33:23.018Z,3.90
2022-08-23T07:36:35.967Z,4.30
2022-08-23T07:39:10.379Z,3.60
2022-08-23T07:41:41.022Z,4.40
2022-08-23T07:44:12.857Z,4.70
2022-08-23T07:46:46.942Z,4.00
2022-08-23T07:49:16.385Z,4.00
2022-08-23T07:51:52.853Z,5.20
2022-08-23T07:54:33.263Z,3.60
2022-08-23T07:57:21.893Z,3.30
2022-08-23T08:00:05.268Z,4.10
2022-08-23T08:02:47.289Z,4.60
2022-08-23T08:05:23.383Z,4.10
2022-08-23T08:07:51.556Z,4.10
2022-08-23T08:10:21.346Z,4.20
2022-08-23T08:12:49.926Z,3.50
2022-08-23T08:15:23.229Z,3.90
2022-08-23T08:18:05.728Z,4.30
2022-08-23T08:20:52.538Z,3.90
2022-08-23T08:23:43.880Z,3.70
2022-08-23T08:26:50.941Z,5.20
2022-08-23T08:29:25.492Z,4.20
2022-08-23T08:31:56.000Z,5.30
2022-08-23T08:34:23.715Z,4.80
2022-08-23T08:36:58.319Z,4.70
2022-08-23T08:39:29.221Z,4.90
2022-08-23T08:42:34.339Z,4.90
2022-08-23T08:45:16.255Z,4.40
2022-08-23T08:47:50.776Z,5.00
2022-08-23T08:50:25.942Z,4.90
2022-08-23T08:53:18.648Z,4.60
2022-08-23T08:56:33.079Z,6.50
2022-08-23T08:59:10.598Z,6.20
2022-08-23T09:01:41.498Z,6.50
2022-08-23T09:04:13.108Z,5.00
2022-08-23T09:07:31.612Z,5.50
2022-08-23T09:10:10.183Z,5.50
2022-08-23T09:13:06.101Z,6.00
2022-08-23T09:16:17.519Z,5.80
2022-08-23T09:18:54.156Z,5.90
2022-08-23T09:21:23.956Z,6.00
2022-08-23T09:24:00.579Z,6.30
2022-08-23T09:27:00.492Z,6.40
2022-08-23T09:29:42.262Z,6.30
2022-08-23T09:32:38.467Z,6.00
2022-08-23T09:35:13.932Z,6.00
2022-08-23T09:38:03.478Z,5.30
2022-08-23T09:40:44.685Z,5.60
2022-08-23T09:43:28.567Z,4.90
2022-08-23T09:46:00.428Z,5.20
2022-08-23T09:48:39.346Z,5.10
2022-08-23T09:51:29.057Z,5.00
2022-08-23T09:54:22.767Z,4.70
2022-08-23T09:56:57.000Z,4.50
2022-08-23T09:59:31.389Z,4.60
2022-08-23T10:02:23.741Z,4.60
2022-08-23T10:05:06.944Z,5.00
2022-08-23T10:07:59.252Z,5.20
2022-08-23T10:10:56.236Z,4.40
2022-08-23T10:13:33.850Z,4.80
2022-08-23T10:16:11.128Z,4.90
2022-08-23T10:19:34.313Z,4.30
2022-08-23T10:22:25.707Z,5.00
2022-08-23T10:25:42.537Z,5.20
2022-08-23T10:29:02.966Z,4.60
2022-08-23T10:32:08.370Z,5.10
2022-08-23T10:35:09.631Z,4.40
2022-08-23T10:37:55.435Z,4.40
2022-08-23T10:40:34.290Z,5.10
2022-08-23T10:43:14.631Z,5.10
2022-08-23T10:45:46.387Z,4.60
2022-08-23T10:48:59.851Z,4.30
2022-08-23T10:51:42.984Z,4.70
2022-08-23T10:54:33.886Z,4.00
2022-08-23T10:57:14.883Z,4.30
2022-08-23T10:59:55.116Z,4.60
2022-08-23T11:02:55.229Z,4.20
2022-08-23T11:06:00.245Z,5.10
2022-08-23T11:08:47.896Z,4.70
2022-08-23T11:12:17.551Z,4.90
2022-08-23T11:17:55.422Z,5.10
2022-08-23T11:21:10.966Z,4.50
2022-08-23T11:24:16.631Z,5.80
2022-08-23T11:27:24.472Z,4.80
2022-08-23T11:31:04.892Z,4.60
2022-08-23T11:33:55.080Z,5.00
2022-08-23T11:36:59.095Z,4.90
2022-08-23T11:39:48.060Z,4.70
2022-08-23T11:43:03.727Z,4.30
2022-08-23T11:45:51.343Z,4.70
2022-08-23T11:51:19.906Z,4.80
2022-08-23T11:54:16.040Z,5.20
2022-08-23T11:57:08.652Z,5.40
2022-08-23T12:03:07.388Z,5.00
2022-08-23T12:05:50.527Z,5.50
2022-08-23T12:08:24.135Z,5.90
2022-08-23T12:10:52.977Z,5.00
2022-08-23T12:13:24.325Z,5.00
2022-08-23T12:16:49.745Z,6.00
2022-08-23T12:20:06.749Z,5.70
2022-08-23T12:23:03.761Z,5.50
2022-08-23T12:25:36.185Z,6.40
2022-08-23T12:28:29.985Z,6.70
2022-08-23T12:31:24.991Z,5.50
2022-08-23T12:34:21.220Z,5.50
2022-08-23T12:37:12.773Z,5.40
2022-08-23T12:40:00.535Z,5.80
2022-08-23T12:42:36.579Z,6.50
2022-08-23T12:45:21.636Z,5.90
2022-08-23T12:48:02.965Z,5.80
2022-08-23T12:50:43.598Z,5.50
2022-08-23T12:53:30.853Z,5.20
2022-08-23T12:56:08.464Z,5.10
2022-08-23T12:58:42.190Z,5.20
2022-08-23T13:01:48.780Z,6.00
2022-08-23T13:04:22.832Z,6.40
2022-08-23T13:06:57.688Z,6.00
2022-08-23T13:09:39.667Z,5.30
2022-08-23T13:12:20.648Z,5.80
2022-08-23T13:14:52.080Z,5.70
2022-08-23T13:17:27.091Z,4.70
2022-08-23T13:20:10.230Z,4.70
2022-08-23T13:22:54.902Z,5.70
2022-08-23T13:25:43.249Z,5.30
2022-08-23T13:28:31.240Z,5.20
2022-08-23T13:31:08.150Z,4.80
2022-08-23T13:33:37.430Z,4.70
2022-08-23T13:36:21.291Z,4.70
2022-08-23T13:38:50.639Z,4.70
2022-08-23T13:41:38.668Z,4.70
2022-08-23T13:44:09.018Z,5.90
2022-08-23T13:46:45.794Z,4.50
2022-08-23T13:49:20.432Z,4.70
2022-08-23T13:52:32.977Z,5.10
2022-08-23T13:54:50.937Z,4.70
2022-08-23T13:57:22.476Z,5.40
2022-08-23T13:59:54.300Z,4.90
2022-08-23T14:02:24.149Z,4.70
2022-08-23T14:04:55.658Z,5.60
2022-08-23T14:07:24.592Z,5.70
2022-08-23T14:09:55.187Z,5.20
2022-08-23T14:12:28.721Z,5.00
2022-08-23T14:14:59.148Z,6.20
2022-08-23T14:17:28.684Z,5.70
2022-08-23T14:22:46.096Z,5.20
2022-08-23T14:25:15.517Z,5.90
2022-08-23T14:27:49.649Z,4.70
2022-08-23T14:30:29.481Z,5.60
2022-08-23T14:33:00.332Z,5.20
2022-08-23T14:35:30.176Z,5.50
2022-08-23T14:38:03.757Z,4.80
2022-08-23T14:40:37.741Z,5.00
2022-08-23T14:43:06.347Z,5.60
2022-08-23T14:45:35.134Z,5.70
2022-08-23T14:48:06.883Z,5.60
2022-08-23T14:50:35.848Z,5.20
2022-08-23T14:53:05.691Z,5.10
2022-08-23T14:55:34.896Z,5.40
2022-08-23T14:58:04.255Z,5.80
2022-08-23T15:00:36.420Z,5.80
2022-08-23T15:03:09.941Z,5.60
2022-08-23T15:05:39.347Z,5.60
2022-08-23T15:08:08.114Z,5.20
2022-08-23T15:12:55.403Z,5.30
2022-08-23T15:13:33.384Z,5.00
2022-08-23T15:16:09.425Z,6.00
2022-08-23T15:18:44.737Z,4.70
2022-08-23T15:21:22.083Z,5.80
2022-08-23T15:23:54.019Z,5.10
2022-08-23T15:26:31.846Z,5.20
2022-08-23T15:29:09.421Z,5.50
2022-08-23T15:31:38.308Z,5.60
2022-08-23T15:34:12.793Z,5.00
2022-08-23T15:36:44.970Z,5.40
2022-08-23T15:39:13.876Z,5.70
2022-08-23T15:41:45.491Z,5.00
2022-08-23T15:44:17.470Z,5.70
2022-08-23T15:46:48.691Z,5.60
2022-08-23T15:49:18.794Z,5.50
2022-08-23T15:51:47.875Z,5.30
2022-08-23T15:54:19.841Z,4.30
2022-08-23T15:56:50.334Z,5.80
2022-08-23T15:59:21.699Z,6.60
2022-08-23T16:01:50.457Z,5.80
2022-08-23T16:04:19.378Z,5.30
2022-08-23T16:06:48.466Z,5.90
2022-08-23T16:09:23.100Z,5.80
2022-08-23T16:11:51.924Z,5.00
2022-08-23T16:14:20.571Z,5.70
2022-08-23T16:16:49.319Z,6.40
2022-08-23T16:19:18.253Z,5.70
2022-08-23T16:21:53.257Z,5.90
2022-08-23T16:24:31.770Z,5.80
2022-08-23T16:27:10.440Z,5.50
2022-08-23T16:29:46.486Z,6.10
2022-08-23T16:32:15.340Z,6.40
2022-08-23T16:34:44.159Z,5.30
2022-08-23T16:37:12.958Z,5.70
2022-08-23T16:39:46.763Z,5.50
2022-08-23T16:42:16.020Z,5.20
2022-08-23T16:44:51.188Z,5.90
2022-08-23T16:47:23.428Z,6.20
2022-08-23T16:49:56.007Z,5.50
2022-08-23T16:52:34.687Z,5.80
2022-08-23T16:55:11.575Z,4.90
2022-08-23T16:57:41.558Z,5.80
2022-08-23T17:00:14.921Z,6.20
2022-08-23T17:02:44.402Z,5.90
2022-08-23T17:05:16.191Z,5.60
2022-08-23T17:07:47.941Z,6.00
2022-08-23T17:12:54.436Z,6.50
2022-08-23T17:15:34.372Z,5.20
2022-08-23T17:18:06.553Z,5.80
2022-08-23T17:20:40.753Z,6.00
2022-08-23T17:23:18.861Z,5.30
2022-08-23T17:26:00.244Z,6.50
2022-08-23T17:28:34.908Z,6.50
2022-08-23T17:31:11.146Z,6.10
2022-08-23T17:34:03.546Z,6.50
2022-08-23T17:36:48.674Z,5.70
2022-08-23T17:39:29.211Z,5.80
2022-08-23T17:42:00.709Z,7.10
2022-08-23T17:44:32.872Z,5.60
2022-08-23T17:47:07.634Z,5.80
2022-08-23T17:49:42.729Z,6.40
2022-08-23T17:52:17.687Z,6.30
2022-08-23T17:54:46.649Z,6.30
2022-08-23T17:57:18.763Z,6.40
2022-08-23T17:59:53.942Z,5.70
2022-08-23T18:02:25.014Z,5.90
2022-08-23T18:04:54.388Z,6.00
2022-08-23T18:07:23.284Z,6.10
2022-08-23T18:09:55.250Z,6.00
2022-08-23T18:12:44.145Z,6.10
2022-08-23T18:15:16.019Z,6.70
2022-08-23T18:17:45.194Z,6.10
2022-08-23T18:20:17.119Z,5.40
2022-08-23T18:22:48.756Z,5.30
2022-08-23T18:28:08.582Z,5.20
2022-08-23T18:30:52.317Z,5.30
2022-08-23T18:33:31.714Z,5.60
2022-08-23T18:36:09.591Z,5.90
2022-08-23T18:38:47.909Z,5.90
2022-08-23T18:41:17.719Z,5.30
2022-08-23T18:43:54.426Z,5.80
2022-08-23T18:46:23.625Z,5.60
2022-08-23T18:48:59.440Z,6.00
2022-08-23T18:51:28.499Z,5.90
2022-08-23T18:54:06.611Z,5.70
2022-08-23T18:56:38.131Z,5.70
2022-08-23T18:59:27.771Z,5.60
2022-08-23T19:02:22.675Z,6.50
2022-08-23T19:04:57.578Z,6.80
2022-08-23T19:07:36.773Z,6.00
2022-08-23T19:10:10.350Z,6.30
2022-08-23T19:12:53.945Z,6.40
2022-08-23T19:15:29.050Z,6.30
2022-08-23T19:18:04.079Z,5.90
2022-08-23T19:20:44.472Z,6.30
2022-08-23T19:23:28.434Z,5.50
2022-08-23T19:26:15.239Z,6.70
2022-08-23T19:28:48.513Z,6.50
2022-08-23T19:31:37.235Z,5.50
2022-08-23T19:34:11.970Z,6.00
2022-08-23T19:37:01.475Z,7.40
2022-08-23T19:39:45.725Z,5.80
2022-08-23T19:42:21.289Z,5.60
2022-08-23T19:44:58.972Z,5.70
2022-08-23T19:47:31.106Z,6.20
2022-08-23T19:50:10.647Z,6.50
2022-08-23T19:52:51.906Z,6.10
2022-08-23T19:55:24.095Z,6.60
2022-08-23T19:57:56.882Z,6.50
2022-08-23T20:00:31.748Z,6.10
2022-08-23T20:03:19.088Z,6.10
2022-08-23T20:05:50.391Z,5.60
2022-08-23T20:08:39.794Z,6.00
2022-08-23T20:11:37.173Z,5.90
2022-08-23T20:14:16.238Z,6.50
2022-08-23T20:16:51.379Z,6.20
2022-08-23T20:19:25.999Z,5.80
2022-08-23T20:22:16.241Z,6.60
2022-08-23T20:24:52.885Z,7.40
2022-08-23T20:27:30.732Z,6.60
2022-08-23T20:30:03.649Z,6.70
2022-08-23T20:32:37.867Z,6.00
2022-08-23T20:35:15.736Z,6.60
2022-08-23T20:37:50.594Z,6.60
2022-08-23T20:40:26.216Z,6.70
2022-08-23T20:42:57.937Z,6.10
2022-08-23T20:45:27.476Z,6.60
2022-08-23T20:47:59.675Z,6.90
2022-08-23T20:50:31.819Z,6.30
2022-08-23T20:53:28.995Z,6.80
2022-08-23T20:56:09.049Z,6.50
2022-08-23T20:58:38.554Z,6.90
2022-08-23T21:01:10.175Z,6.40
2022-08-23T21:03:43.995Z,7.40
2022-08-23T21:06:28.368Z,7.90
2022-08-23T21:09:12.451Z,7.60
2022-08-23T21:11:44.117Z,7.10
2022-08-23T21:14:17.273Z,7.20
2022-08-23T21:16:52.910Z,8.70
2022-08-23T21:19:39.310Z,8.60
2022-08-23T21:22:18.239Z,7.00
2022-08-23T21:24:47.386Z,7.10
2022-08-23T21:27:25.929Z,7.70
2022-08-23T21:29:57.977Z,6.90
2022-08-23T21:32:57.449Z,7.10
2022-08-23T21:35:32.571Z,7.00
2022-08-23T21:38:15.866Z,7.20
2022-08-23T21:40:58.290Z,7.10
2022-08-23T21:43:39.679Z,7.10
2022-08-23T21:46:38.519Z,7.20
2022-08-23T21:49:18.710Z,7.40
2022-08-23T21:52:18.365Z,7.20
2022-08-23T21:55:02.080Z,7.50
2022-08-23T21:57:46.104Z,7.60
2022-08-23T22:00:33.857Z,7.30
2022-08-23T22:03:35.279Z,8.30
2022-08-23T22:06:38.317Z,7.70
2022-08-23T22:09:31.699Z,8.20
2022-08-23T22:12:25.041Z,8.60
2022-08-23T22:15:30.702Z,8.20
2022-08-23T22:18:18.536Z,7.30
2022-08-23T22:21:25.142Z,8.10
2022-08-23T22:23:53.557Z,8.10
2022-08-23T22:26:49.151Z,8.30
2022-08-23T22:29:26.333Z,7.50
2022-08-23T22:32:04.625Z,7.80
2022-08-23T22:34:33.373Z,7.10
2022-08-23T22:37:02.075Z,7.90
2022-08-23T22:39:46.259Z,8.20
2022-08-23T22:42:20.550Z,7.80
2022-08-23T22:45:00.811Z,7.40
2022-08-23T22:50:15.164Z,7.30
2022-08-23T22:52:54.793Z,8.20
2022-08-23T22:55:24.017Z,8.00
2022-08-23T22:57:55.748Z,8.40
2022-08-23T23:00:27.887Z,8.40
2022-08-23T23:03:13.513Z,8.00
2022-08-23T23:05:49.937Z,9.10
2022-08-23T23:08:30.119Z,8.00
2022-08-23T23:11:06.278Z,8.80
2022-08-23T23:13:42.056Z,8.20
2022-08-23T23:16:17.991Z,8.50
2022-08-23T23:19:12.072Z,9.20
2022-08-23T23:21:47.801Z,8.60
2022-08-23T23:24:29.389Z,8.50
2022-08-23T23:27:12.303Z,9.50
2022-08-23T23:29:44.075Z,8.20
2022-08-23T23:32:24.430Z,8.20
2022-08-23T23:34:58.896Z,8.00
2022-08-23T23:37:32.618Z,9.00
2022-08-23T23:40:21.915Z,8.60
2022-08-23T23:43:13.142Z,9.10
2022-08-23T23:46:16.810Z,8.80
2022-08-23T23:48:51.420Z,9.20
2022-08-23T23:51:28.774Z,8.40
2022-08-23T23:54:04.404Z,8.70
2022-08-23T23:56:46.794Z,9.20
2022-08-23T23:59:16.510Z,10.30
